sensor_id;sensor_type;location;lat;lon;timestamp;P1;durP1;ratioP1;P2;durP2;ratioP2
54929;SDS011;40833;53.238;6.576;2023-04-25T00:00:11;27.37;;;3.30;;
54929;SDS011;40833;53.238;6.576;2023-04-25T00:02:37;21.43;;;3.20;;
54929;SDS011;40833;53.238;6.576;2023-04-25T00:05:03;27.13;;;3.47;;
54929;SDS011;40833;53.238;6.576;2023-04-25T00:07:29;31.93;;;3.80;;
54929;SDS011;40833;53.238;6.576;2023-04-25T00:09:56;29.57;;;3.97;;
54929;SDS011;40833;53.238;6.576;2023-04-25T00:12:21;21.70;;;3.53;;
54929;SDS011;40833;53.238;6.576;2023-04-25T00:14:48;26.70;;;3.40;;
54929;SDS011;40833;53.238;6.576;2023-04-25T00:17:15;24.90;;;3.80;;
54929;SDS011;40833;53.238;6.576;2023-04-25T00:19:41;27.40;;;3.97;;
54929;SDS011;40833;53.238;6.576;2023-04-25T00:22:09;24.57;;;3.33;;
54929;SDS011;40833;53.238;6.576;2023-04-25T00:24:35;32.20;;;3.17;;
54929;SDS011;40833;53.238;6.576;2023-04-25T00:27:01;19.07;;;3.00;;
54929;SDS011;40833;53.238;6.576;2023-04-25T00:29:27;18.03;;;3.03;;
54929;SDS011;40833;53.238;6.576;2023-04-25T00:31:52;17.87;;;2.63;;
54929;SDS011;40833;53.238;6.576;2023-04-25T00:34:18;10.57;;;2.10;;
54929;SDS011;40833;53.238;6.576;2023-04-25T00:36:44;20.20;;;3.13;;
54929;SDS011;40833;53.238;6.576;2023-04-25T00:39:09;21.40;;;2.13;;
54929;SDS011;40833;53.238;6.576;2023-04-25T00:41:36;15.97;;;2.37;;
54929;SDS011;40833;53.238;6.576;2023-04-25T00:44:03;20.50;;;3.10;;
54929;SDS011;40833;53.238;6.576;2023-04-25T00:46:30;12.50;;;2.03;;
54929;SDS011;40833;53.238;6.576;2023-04-25T00:48:56;21.47;;;4.03;;
54929;SDS011;40833;53.238;6.576;2023-04-25T00:51:22;18.60;;;2.00;;
54929;SDS011;40833;53.238;6.576;2023-04-25T00:53:49;22.10;;;2.73;;
54929;SDS011;40833;53.238;6.576;2023-04-25T00:56:15;19.13;;;1.90;;
54929;SDS011;40833;53.238;6.576;2023-04-25T00:58:41;21.13;;;2.47;;
54929;SDS011;40833;53.238;6.576;2023-04-25T01:01:08;26.90;;;2.13;;
54929;SDS011;40833;53.238;6.576;2023-04-25T01:03:35;17.00;;;2.40;;
54929;SDS011;40833;53.238;6.576;2023-04-25T01:06:09;19.27;;;2.37;;
54929;SDS011;40833;53.238;6.576;2023-04-25T01:08:36;11.90;;;2.00;;
54929;SDS011;40833;53.238;6.576;2023-04-25T01:11:03;19.87;;;1.87;;
54929;SDS011;40833;53.238;6.576;2023-04-25T01:13:29;18.47;;;2.70;;
54929;SDS011;40833;53.238;6.576;2023-04-25T01:15:57;19.23;;;2.20;;
54929;SDS011;40833;53.238;6.576;2023-04-25T01:18:23;13.43;;;1.57;;
54929;SDS011;40833;53.238;6.576;2023-04-25T01:20:50;22.03;;;1.90;;
54929;SDS011;40833;53.238;6.576;2023-04-25T01:23:16;34.27;;;3.07;;
54929;SDS011;40833;53.238;6.576;2023-04-25T01:25:43;19.57;;;1.80;;
54929;SDS011;40833;53.238;6.576;2023-04-25T01:28:10;14.53;;;1.80;;
54929;SDS011;40833;53.238;6.576;2023-04-25T01:30:36;14.50;;;1.60;;
54929;SDS011;40833;53.238;6.576;2023-04-25T01:33:03;15.83;;;2.20;;
54929;SDS011;40833;53.238;6.576;2023-04-25T01:35:30;17.93;;;2.23;;
54929;SDS011;40833;53.238;6.576;2023-04-25T01:37:57;11.73;;;2.17;;
54929;SDS011;40833;53.238;6.576;2023-04-25T01:40:23;19.10;;;1.60;;
54929;SDS011;40833;53.238;6.576;2023-04-25T01:42:49;14.43;;;2.60;;
54929;SDS011;40833;53.238;6.576;2023-04-25T01:45:16;16.60;;;2.00;;
54929;SDS011;40833;53.238;6.576;2023-04-25T01:47:42;18.07;;;2.10;;
54929;SDS011;40833;53.238;6.576;2023-04-25T01:50:10;20.03;;;2.07;;
54929;SDS011;40833;53.238;6.576;2023-04-25T01:52:36;16.97;;;2.27;;
54929;SDS011;40833;53.238;6.576;2023-04-25T01:55:02;23.53;;;2.87;;
54929;SDS011;40833;53.238;6.576;2023-04-25T01:57:28;31.40;;;3.90;;
54929;SDS011;40833;53.238;6.576;2023-04-25T01:59:55;25.50;;;2.63;;
54929;SDS011;40833;53.238;6.576;2023-04-25T02:02:25;18.80;;;2.50;;
54929;SDS011;40833;53.238;6.576;2023-04-25T02:04:51;23.03;;;2.37;;
54929;SDS011;40833;53.238;6.576;2023-04-25T02:07:17;26.50;;;3.30;;
54929;SDS011;40833;53.238;6.576;2023-04-25T02:09:43;31.10;;;3.27;;
54929;SDS011;40833;53.238;6.576;2023-04-25T02:12:09;19.20;;;2.10;;
54929;SDS011;40833;53.238;6.576;2023-04-25T02:14:35;26.73;;;2.20;;
54929;SDS011;40833;53.238;6.576;2023-04-25T02:17:01;21.90;;;3.07;;
54929;SDS011;40833;53.238;6.576;2023-04-25T02:19:27;20.27;;;2.83;;
54929;SDS011;40833;53.238;6.576;2023-04-25T02:21:53;18.80;;;2.40;;
54929;SDS011;40833;53.238;6.576;2023-04-25T02:24:20;20.27;;;2.20;;
54929;SDS011;40833;53.238;6.576;2023-04-25T02:26:45;18.63;;;2.60;;
54929;SDS011;40833;53.238;6.576;2023-04-25T02:29:12;16.40;;;2.13;;
54929;SDS011;40833;53.238;6.576;2023-04-25T02:31:40;20.83;;;3.70;;
54929;SDS011;40833;53.238;6.576;2023-04-25T02:34:05;18.77;;;2.60;;
54929;SDS011;40833;53.238;6.576;2023-04-25T02:36:31;17.13;;;2.23;;
54929;SDS011;40833;53.238;6.576;2023-04-25T02:38:59;15.43;;;1.87;;
54929;SDS011;40833;53.238;6.576;2023-04-25T02:41:25;13.57;;;1.67;;
54929;SDS011;40833;53.238;6.576;2023-04-25T02:43:51;13.30;;;1.90;;
54929;SDS011;40833;53.238;6.576;2023-04-25T02:46:17;15.57;;;1.97;;
54929;SDS011;40833;53.238;6.576;2023-04-25T02:48:43;17.50;;;1.67;;
54929;SDS011;40833;53.238;6.576;2023-04-25T02:51:09;14.63;;;1.60;;
54929;SDS011;40833;53.238;6.576;2023-04-25T02:53:34;11.00;;;1.67;;
54929;SDS011;40833;53.238;6.576;2023-04-25T02:56:00;8.20;;;1.53;;
54929;SDS011;40833;53.238;6.576;2023-04-25T02:58:26;13.50;;;1.30;;
54929;SDS011;40833;53.238;6.576;2023-04-25T03:00:52;14.80;;;1.40;;
54929;SDS011;40833;53.238;6.576;2023-04-25T03:03:18;13.70;;;1.83;;
54929;SDS011;40833;53.238;6.576;2023-04-25T03:05:46;11.00;;;1.70;;
54929;SDS011;40833;53.238;6.576;2023-04-25T03:08:16;13.27;;;1.53;;
54929;SDS011;40833;53.238;6.576;2023-04-25T03:10:42;14.90;;;2.07;;
54929;SDS011;40833;53.238;6.576;2023-04-25T03:13:08;24.00;;;1.93;;
54929;SDS011;40833;53.238;6.576;2023-04-25T03:15:34;18.90;;;1.47;;
54929;SDS011;40833;53.238;6.576;2023-04-25T03:18:00;18.33;;;1.90;;
54929;SDS011;40833;53.238;6.576;2023-04-25T03:20:26;15.30;;;3.07;;
54929;SDS011;40833;53.238;6.576;2023-04-25T03:22:52;17.93;;;2.27;;
54929;SDS011;40833;53.238;6.576;2023-04-25T03:25:17;13.27;;;1.57;;
54929;SDS011;40833;53.238;6.576;2023-04-25T03:27:43;14.47;;;2.13;;
54929;SDS011;40833;53.238;6.576;2023-04-25T03:30:09;12.90;;;1.33;;
54929;SDS011;40833;53.238;6.576;2023-04-25T03:32:36;14.73;;;1.37;;
54929;SDS011;40833;53.238;6.576;2023-04-25T03:35:01;17.10;;;1.90;;
54929;SDS011;40833;53.238;6.576;2023-04-25T03:37:28;13.53;;;1.70;;
54929;SDS011;40833;53.238;6.576;2023-04-25T03:39:54;19.07;;;1.50;;
54929;SDS011;40833;53.238;6.576;2023-04-25T03:42:19;14.60;;;2.47;;
54929;SDS011;40833;53.238;6.576;2023-04-25T03:44:47;11.40;;;1.57;;
54929;SDS011;40833;53.238;6.576;2023-04-25T03:47:16;14.37;;;1.40;;
54929;SDS011;40833;53.238;6.576;2023-04-25T03:49:42;13.57;;;1.37;;
54929;SDS011;40833;53.238;6.576;2023-04-25T03:52:08;19.73;;;2.43;;
54929;SDS011;40833;53.238;6.576;2023-04-25T03:54:34;17.67;;;1.97;;
54929;SDS011;40833;53.238;6.576;2023-04-25T03:56:59;15.07;;;2.23;;
54929;SDS011;40833;53.238;6.576;2023-04-25T03:59:25;13.93;;;1.23;;
54929;SDS011;40833;53.238;6.576;2023-04-25T04:01:51;11.93;;;1.37;;
54929;SDS011;40833;53.238;6.576;2023-04-25T04:04:17;12.70;;;1.30;;
54929;SDS011;40833;53.238;6.576;2023-04-25T04:06:43;14.10;;;1.83;;
54929;SDS011;40833;53.238;6.576;2023-04-25T04:09:09;14.90;;;1.20;;
54929;SDS011;40833;53.238;6.576;2023-04-25T04:11:39;10.23;;;1.50;;
54929;SDS011;40833;53.238;6.576;2023-04-25T04:14:05;13.03;;;2.50;;
54929;SDS011;40833;53.238;6.576;2023-04-25T04:16:31;15.30;;;1.17;;
54929;SDS011;40833;53.238;6.576;2023-04-25T04:18:57;18.73;;;1.77;;
54929;SDS011;40833;53.238;6.576;2023-04-25T04:21:23;15.20;;;1.77;;
54929;SDS011;40833;53.238;6.576;2023-04-25T04:23:49;16.77;;;2.07;;
54929;SDS011;40833;53.238;6.576;2023-04-25T04:26:14;21.53;;;1.33;;
54929;SDS011;40833;53.238;6.576;2023-04-25T04:28:41;17.07;;;2.57;;
54929;SDS011;40833;53.238;6.576;2023-04-25T04:31:09;17.80;;;1.90;;
54929;SDS011;40833;53.238;6.576;2023-04-25T04:33:35;16.17;;;1.37;;
54929;SDS011;40833;53.238;6.576;2023-04-25T04:36:01;20.03;;;1.47;;
54929;SDS011;40833;53.238;6.576;2023-04-25T04:38:28;17.63;;;1.70;;
54929;SDS011;40833;53.238;6.576;2023-04-25T04:40:54;17.13;;;2.43;;
54929;SDS011;40833;53.238;6.576;2023-04-25T04:43:20;16.30;;;1.53;;
54929;SDS011;40833;53.238;6.576;2023-04-25T04:45:47;16.50;;;1.60;;
54929;SDS011;40833;53.238;6.576;2023-04-25T04:48:15;21.03;;;2.63;;
54929;SDS011;40833;53.238;6.576;2023-04-25T04:50:42;17.80;;;1.90;;
54929;SDS011;40833;53.238;6.576;2023-04-25T04:53:10;16.97;;;1.87;;
54929;SDS011;40833;53.238;6.576;2023-04-25T04:55:36;15.07;;;1.30;;
54929;SDS011;40833;53.238;6.576;2023-04-25T04:58:01;15.03;;;1.53;;
54929;SDS011;40833;53.238;6.576;2023-04-25T05:00:27;11.90;;;1.40;;
54929;SDS011;40833;53.238;6.576;2023-04-25T05:02:54;10.93;;;1.20;;
54929;SDS011;40833;53.238;6.576;2023-04-25T05:05:20;12.97;;;1.00;;
54929;SDS011;40833;53.238;6.576;2023-04-25T05:07:46;11.70;;;0.70;;
54929;SDS011;40833;53.238;6.576;2023-04-25T05:10:12;7.90;;;0.53;;
54929;SDS011;40833;53.238;6.576;2023-04-25T05:12:38;4.13;;;0.90;;
54929;SDS011;40833;53.238;6.576;2023-04-25T05:15:04;5.00;;;0.60;;
54929;SDS011;40833;53.238;6.576;2023-04-25T05:17:30;6.27;;;0.80;;
54929;SDS011;40833;53.238;6.576;2023-04-25T05:19:56;4.50;;;0.40;;
54929;SDS011;40833;53.238;6.576;2023-04-25T05:22:22;10.10;;;0.70;;
54929;SDS011;40833;53.238;6.576;2023-04-25T05:24:48;4.17;;;0.60;;
54929;SDS011;40833;53.238;6.576;2023-04-25T05:27:15;8.33;;;0.40;;
54929;SDS011;40833;53.238;6.576;2023-04-25T05:29:42;7.53;;;0.43;;
54929;SDS011;40833;53.238;6.576;2023-04-25T05:32:08;8.63;;;0.60;;
54929;SDS011;40833;53.238;6.576;2023-04-25T05:34:34;5.30;;;0.50;;
54929;SDS011;40833;53.238;6.576;2023-04-25T05:37:00;4.83;;;0.67;;
54929;SDS011;40833;53.238;6.576;2023-04-25T05:39:26;7.73;;;0.60;;
54929;SDS011;40833;53.238;6.576;2023-04-25T05:41:52;10.13;;;1.33;;
54929;SDS011;40833;53.238;6.576;2023-04-25T05:44:18;6.17;;;1.57;;
54929;SDS011;40833;53.238;6.576;2023-04-25T05:46:44;5.63;;;0.60;;
54929;SDS011;40833;53.238;6.576;2023-04-25T05:49:10;10.77;;;0.93;;
54929;SDS011;40833;53.238;6.576;2023-04-25T05:51:35;10.30;;;0.80;;
54929;SDS011;40833;53.238;6.576;2023-04-25T05:54:01;16.67;;;1.27;;
54929;SDS011;40833;53.238;6.576;2023-04-25T05:56:27;11.10;;;1.10;;
54929;SDS011;40833;53.238;6.576;2023-04-25T05:58:53;15.70;;;1.00;;
54929;SDS011;40833;53.238;6.576;2023-04-25T06:01:21;17.13;;;1.73;;
54929;SDS011;40833;53.238;6.576;2023-04-25T06:03:47;6.33;;;0.90;;
54929;SDS011;40833;53.238;6.576;2023-04-25T06:06:13;9.27;;;1.00;;
54929;SDS011;40833;53.238;6.576;2023-04-25T06:08:38;7.63;;;0.40;;
54929;SDS011;40833;53.238;6.576;2023-04-25T06:11:04;7.97;;;0.50;;
54929;SDS011;40833;53.238;6.576;2023-04-25T06:13:31;3.43;;;0.30;;
54929;SDS011;40833;53.238;6.576;2023-04-25T06:15:57;3.37;;;0.23;;
54929;SDS011;40833;53.238;6.576;2023-04-25T06:18:22;6.60;;;0.50;;
54929;SDS011;40833;53.238;6.576;2023-04-25T06:20:48;2.97;;;0.57;;
54929;SDS011;40833;53.238;6.576;2023-04-25T06:23:14;3.43;;;0.30;;
54929;SDS011;40833;53.238;6.576;2023-04-25T06:25:39;4.90;;;0.43;;
54929;SDS011;40833;53.238;6.576;2023-04-25T06:28:05;4.07;;;0.83;;
54929;SDS011;40833;53.238;6.576;2023-04-25T06:30:34;8.17;;;0.83;;
54929;SDS011;40833;53.238;6.576;2023-04-25T06:32:59;9.27;;;1.13;;
54929;SDS011;40833;53.238;6.576;2023-04-25T06:35:25;4.07;;;0.47;;
54929;SDS011;40833;53.238;6.576;2023-04-25T06:37:51;7.17;;;0.60;;
54929;SDS011;40833;53.238;6.576;2023-04-25T06:40:16;5.80;;;1.00;;
54929;SDS011;40833;53.238;6.576;2023-04-25T06:42:42;11.90;;;0.87;;
54929;SDS011;40833;53.238;6.576;2023-04-25T06:45:08;7.83;;;0.97;;
54929;SDS011;40833;53.238;6.576;2023-04-25T06:47:34;9.50;;;1.10;;
54929;SDS011;40833;53.238;6.576;2023-04-25T06:50:00;11.77;;;2.47;;
54929;SDS011;40833;53.238;6.576;2023-04-25T06:52:26;13.27;;;1.83;;
54929;SDS011;40833;53.238;6.576;2023-04-25T06:54:52;11.30;;;1.20;;
54929;SDS011;40833;53.238;6.576;2023-04-25T06:57:17;7.97;;;1.30;;
54929;SDS011;40833;53.238;6.576;2023-04-25T06:59:43;17.37;;;2.47;;
54929;SDS011;40833;53.238;6.576;2023-04-25T07:02:09;11.63;;;1.03;;
54929;SDS011;40833;53.238;6.576;2023-04-25T07:04:35;9.90;;;1.30;;
54929;SDS011;40833;53.238;6.576;2023-04-25T07:07:01;12.07;;;1.13;;
54929;SDS011;40833;53.238;6.576;2023-04-25T07:09:28;9.13;;;0.90;;
54929;SDS011;40833;53.238;6.576;2023-04-25T07:11:55;16.80;;;1.27;;
54929;SDS011;40833;53.238;6.576;2023-04-25T07:14:21;7.57;;;0.83;;
54929;SDS011;40833;53.238;6.576;2023-04-25T07:16:47;8.43;;;0.80;;
54929;SDS011;40833;53.238;6.576;2023-04-25T07:19:13;5.20;;;0.50;;
54929;SDS011;40833;53.238;6.576;2023-04-25T07:21:39;4.17;;;0.97;;
54929;SDS011;40833;53.238;6.576;2023-04-25T07:24:05;7.07;;;0.60;;
54929;SDS011;40833;53.238;6.576;2023-04-25T07:26:31;5.47;;;0.87;;
54929;SDS011;40833;53.238;6.576;2023-04-25T07:28:57;8.23;;;1.43;;
54929;SDS011;40833;53.238;6.576;2023-04-25T07:31:23;7.03;;;0.53;;
54929;SDS011;40833;53.238;6.576;2023-04-25T07:33:48;9.93;;;1.20;;
54929;SDS011;40833;53.238;6.576;2023-04-25T07:36:14;5.03;;;0.50;;
54929;SDS011;40833;53.238;6.576;2023-04-25T07:38:40;8.63;;;0.83;;
54929;SDS011;40833;53.238;6.576;2023-04-25T07:41:06;8.27;;;1.27;;
54929;SDS011;40833;53.238;6.576;2023-04-25T07:43:32;10.70;;;0.77;;
54929;SDS011;40833;53.238;6.576;2023-04-25T07:45:58;10.33;;;1.23;;
54929;SDS011;40833;53.238;6.576;2023-04-25T07:48:23;7.60;;;0.70;;
54929;SDS011;40833;53.238;6.576;2023-04-25T07:50:49;6.03;;;0.70;;
54929;SDS011;40833;53.238;6.576;2023-04-25T07:53:15;8.27;;;0.63;;
54929;SDS011;40833;53.238;6.576;2023-04-25T07:55:43;7.03;;;0.73;;
54929;SDS011;40833;53.238;6.576;2023-04-25T07:58:09;9.30;;;0.90;;
54929;SDS011;40833;53.238;6.576;2023-04-25T08:00:37;9.03;;;0.90;;
54929;SDS011;40833;53.238;6.576;2023-04-25T08:03:03;6.10;;;0.70;;
54929;SDS011;40833;53.238;6.576;2023-04-25T08:05:29;7.87;;;0.60;;
54929;SDS011;40833;53.238;6.576;2023-04-25T08:07:54;11.30;;;1.80;;
54929;SDS011;40833;53.238;6.576;2023-04-25T08:10:22;5.90;;;0.70;;
54929;SDS011;40833;53.238;6.576;2023-04-25T08:12:48;4.20;;;0.40;;
54929;SDS011;40833;53.238;6.576;2023-04-25T08:15:14;5.33;;;0.70;;
54929;SDS011;40833;53.238;6.576;2023-04-25T08:17:40;5.03;;;0.60;;
54929;SDS011;40833;53.238;6.576;2023-04-25T08:20:06;4.03;;;0.30;;
54929;SDS011;40833;53.238;6.576;2023-04-25T08:22:32;9.30;;;0.57;;
54929;SDS011;40833;53.238;6.576;2023-04-25T08:25:01;3.13;;;0.30;;
54929;SDS011;40833;53.238;6.576;2023-04-25T08:27:26;4.67;;;0.40;;
54929;SDS011;40833;53.238;6.576;2023-04-25T08:29:52;2.40;;;0.30;;
54929;SDS011;40833;53.238;6.576;2023-04-25T08:32:18;5.03;;;0.30;;
54929;SDS011;40833;53.238;6.576;2023-04-25T08:34:44;2.97;;;0.40;;
54929;SDS011;40833;53.238;6.576;2023-04-25T08:37:10;4.93;;;0.57;;
54929;SDS011;40833;53.238;6.576;2023-04-25T08:39:36;4.33;;;0.23;;
54929;SDS011;40833;53.238;6.576;2023-04-25T08:42:02;5.53;;;0.53;;
54929;SDS011;40833;53.238;6.576;2023-04-25T08:44:35;3.83;;;0.47;;
54929;SDS011;40833;53.238;6.576;2023-04-25T08:47:04;2.80;;;0.40;;
54929;SDS011;40833;53.238;6.576;2023-04-25T08:49:33;5.00;;;0.50;;
54929;SDS011;40833;53.238;6.576;2023-04-25T08:52:00;8.03;;;0.40;;
54929;SDS011;40833;53.238;6.576;2023-04-25T08:54:29;7.20;;;0.50;;
54929;SDS011;40833;53.238;6.576;2023-04-25T08:56:56;5.90;;;0.47;;
54929;SDS011;40833;53.238;6.576;2023-04-25T08:59:27;4.23;;;0.43;;
54929;SDS011;40833;53.238;6.576;2023-04-25T09:01:53;6.70;;;0.87;;
54929;SDS011;40833;53.238;6.576;2023-04-25T09:04:19;7.57;;;0.57;;
54929;SDS011;40833;53.238;6.576;2023-04-25T09:06:46;12.03;;;1.10;;
54929;SDS011;40833;53.238;6.576;2023-04-25T09:09:12;10.40;;;1.10;;
54929;SDS011;40833;53.238;6.576;2023-04-25T09:11:38;13.37;;;1.10;;
54929;SDS011;40833;53.238;6.576;2023-04-25T09:14:12;6.60;;;1.13;;
54929;SDS011;40833;53.238;6.576;2023-04-25T09:19:24;12.27;;;0.80;;
54929;SDS011;40833;53.238;6.576;2023-04-25T09:21:55;17.13;;;1.07;;
54929;SDS011;40833;53.238;6.576;2023-04-25T09:24:35;8.37;;;1.07;;
54929;SDS011;40833;53.238;6.576;2023-04-25T09:27:07;8.77;;;1.00;;
54929;SDS011;40833;53.238;6.576;2023-04-25T09:29:35;7.87;;;1.13;;
54929;SDS011;40833;53.238;6.576;2023-04-25T09:32:14;6.37;;;0.80;;
54929;SDS011;40833;53.238;6.576;2023-04-25T09:34:43;10.13;;;1.10;;
54929;SDS011;40833;53.238;6.576;2023-04-25T09:37:16;11.97;;;1.10;;
54929;SDS011;40833;53.238;6.576;2023-04-25T09:39:44;11.10;;;1.43;;
54929;SDS011;40833;53.238;6.576;2023-04-25T09:42:11;9.27;;;0.73;;
54929;SDS011;40833;53.238;6.576;2023-04-25T09:44:41;6.33;;;1.63;;
54929;SDS011;40833;53.238;6.576;2023-04-25T09:47:12;5.30;;;0.70;;
54929;SDS011;40833;53.238;6.576;2023-04-25T09:49:43;10.60;;;0.93;;
54929;SDS011;40833;53.238;6.576;2023-04-25T09:52:09;7.13;;;0.73;;
54929;SDS011;40833;53.238;6.576;2023-04-25T09:54:39;9.47;;;0.90;;
54929;SDS011;40833;53.238;6.576;2023-04-25T09:59:39;7.63;;;1.13;;
54929;SDS011;40833;53.238;6.576;2023-04-25T10:02:09;8.47;;;0.97;;
54929;SDS011;40833;53.238;6.576;2023-04-25T10:04:36;6.70;;;1.00;;
54929;SDS011;40833;53.238;6.576;2023-04-25T10:07:05;7.07;;;0.70;;
54929;SDS011;40833;53.238;6.576;2023-04-25T10:09:32;9.53;;;0.87;;
54929;SDS011;40833;53.238;6.576;2023-04-25T10:11:59;10.80;;;0.70;;
54929;SDS011;40833;53.238;6.576;2023-04-25T10:14:25;5.97;;;0.63;;
54929;SDS011;40833;53.238;6.576;2023-04-25T10:16:52;7.37;;;1.00;;
54929;SDS011;40833;53.238;6.576;2023-04-25T10:19:22;5.63;;;0.73;;
54929;SDS011;40833;53.238;6.576;2023-04-25T10:21:54;6.80;;;1.13;;
54929;SDS011;40833;53.238;6.576;2023-04-25T10:24:36;12.67;;;1.47;;
54929;SDS011;40833;53.238;6.576;2023-04-25T10:27:04;11.47;;;1.03;;
54929;SDS011;40833;53.238;6.576;2023-04-25T10:29:30;8.70;;;2.10;;
54929;SDS011;40833;53.238;6.576;2023-04-25T10:31:56;9.80;;;0.80;;
54929;SDS011;40833;53.238;6.576;2023-04-25T10:34:41;11.63;;;0.90;;
54929;SDS011;40833;53.238;6.576;2023-04-25T10:37:08;5.47;;;0.77;;
54929;SDS011;40833;53.238;6.576;2023-04-25T10:39:35;11.93;;;1.03;;
54929;SDS011;40833;53.238;6.576;2023-04-25T10:42:02;8.87;;;1.13;;
54929;SDS011;40833;53.238;6.576;2023-04-25T10:44:28;11.77;;;1.30;;
54929;SDS011;40833;53.238;6.576;2023-04-25T10:46:58;9.30;;;1.13;;
54929;SDS011;40833;53.238;6.576;2023-04-25T10:49:43;2.77;;;0.50;;
54929;SDS011;40833;53.238;6.576;2023-04-25T10:54:53;8.32;;;0.75;;
54929;SDS011;40833;53.238;6.576;2023-04-25T10:57:27;10.20;;;0.53;;
54929;SDS011;40833;53.238;6.576;2023-04-25T11:00:15;9.10;;;0.70;;
54929;SDS011;40833;53.238;6.576;2023-04-25T11:05:11;10.17;;;0.77;;
54929;SDS011;40833;53.238;6.576;2023-04-25T11:07:50;10.10;;;1.10;;
54929;SDS011;40833;53.238;6.576;2023-04-25T11:10:18;4.57;;;0.43;;
54929;SDS011;40833;53.238;6.576;2023-04-25T11:12:47;4.43;;;0.70;;
54929;SDS011;40833;53.238;6.576;2023-04-25T11:15:13;7.60;;;0.30;;
54929;SDS011;40833;53.238;6.576;2023-04-25T11:17:39;3.60;;;0.33;;
54929;SDS011;40833;53.238;6.576;2023-04-25T11:20:06;11.70;;;0.77;;
54929;SDS011;40833;53.238;6.576;2023-04-25T11:22:36;8.33;;;0.93;;
54929;SDS011;40833;53.238;6.576;2023-04-25T11:27:37;6.70;;;1.03;;
54929;SDS011;40833;53.238;6.576;2023-04-25T11:30:24;4.27;;;0.63;;
54929;SDS011;40833;53.238;6.576;2023-04-25T11:32:50;5.40;;;0.80;;
54929;SDS011;40833;53.238;6.576;2023-04-25T11:35:18;3.77;;;0.60;;
54929;SDS011;40833;53.238;6.576;2023-04-25T11:37:47;10.97;;;0.90;;
54929;SDS011;40833;53.238;6.576;2023-04-25T11:40:14;10.40;;;0.90;;
54929;SDS011;40833;53.238;6.576;2023-04-25T11:42:43;8.83;;;1.67;;
54929;SDS011;40833;53.238;6.576;2023-04-25T11:45:10;11.10;;;1.20;;
54929;SDS011;40833;53.238;6.576;2023-04-25T11:47:36;8.33;;;0.53;;
54929;SDS011;40833;53.238;6.576;2023-04-25T11:50:03;7.37;;;0.80;;
54929;SDS011;40833;53.238;6.576;2023-04-25T11:52:38;10.00;;;0.90;;
54929;SDS011;40833;53.238;6.576;2023-04-25T11:55:23;4.77;;;0.77;;
54929;SDS011;40833;53.238;6.576;2023-04-25T11:57:49;3.93;;;0.50;;
54929;SDS011;40833;53.238;6.576;2023-04-25T12:00:16;9.23;;;0.70;;
54929;SDS011;40833;53.238;6.576;2023-04-25T12:02:44;5.23;;;0.63;;
54929;SDS011;40833;53.238;6.576;2023-04-25T12:05:12;8.63;;;0.60;;
54929;SDS011;40833;53.238;6.576;2023-04-25T12:07:40;9.87;;;0.70;;
54929;SDS011;40833;53.238;6.576;2023-04-25T12:10:09;7.70;;;0.60;;
54929;SDS011;40833;53.238;6.576;2023-04-25T12:12:37;14.30;;;1.90;;
54929;SDS011;40833;53.238;6.576;2023-04-25T12:15:13;6.80;;;0.97;;
54929;SDS011;40833;53.238;6.576;2023-04-25T12:17:47;8.30;;;0.90;;
54929;SDS011;40833;53.238;6.576;2023-04-25T12:20:15;7.10;;;0.70;;
54929;SDS011;40833;53.238;6.576;2023-04-25T12:22:42;8.10;;;0.87;;
54929;SDS011;40833;53.238;6.576;2023-04-25T12:25:34;7.53;;;1.33;;
54929;SDS011;40833;53.238;6.576;2023-04-25T12:30:59;6.37;;;1.17;;
54929;SDS011;40833;53.238;6.576;2023-04-25T12:33:44;8.07;;;0.83;;
54929;SDS011;40833;53.238;6.576;2023-04-25T12:36:12;12.73;;;1.30;;
54929;SDS011;40833;53.238;6.576;2023-04-25T12:38:39;10.10;;;1.07;;
54929;SDS011;40833;53.238;6.576;2023-04-25T12:41:06;8.63;;;0.67;;
54929;SDS011;40833;53.238;6.576;2023-04-25T12:43:32;10.70;;;0.70;;
54929;SDS011;40833;53.238;6.576;2023-04-25T12:45:58;5.33;;;0.40;;
54929;SDS011;40833;53.238;6.576;2023-04-25T12:48:24;7.43;;;0.63;;
54929;SDS011;40833;53.238;6.576;2023-04-25T12:50:50;7.97;;;0.60;;
54929;SDS011;40833;53.238;6.576;2023-04-25T12:53:17;6.83;;;0.83;;
54929;SDS011;40833;53.238;6.576;2023-04-25T12:55:44;6.97;;;0.60;;
54929;SDS011;40833;53.238;6.576;2023-04-25T12:58:14;8.63;;;1.63;;
54929;SDS011;40833;53.238;6.576;2023-04-25T13:00:40;12.53;;;1.00;;
54929;SDS011;40833;53.238;6.576;2023-04-25T13:03:07;6.70;;;0.70;;
54929;SDS011;40833;53.238;6.576;2023-04-25T13:05:34;7.40;;;0.60;;
54929;SDS011;40833;53.238;6.576;2023-04-25T13:07:59;4.73;;;0.60;;
54929;SDS011;40833;53.238;6.576;2023-04-25T13:10:25;4.33;;;0.40;;
54929;SDS011;40833;53.238;6.576;2023-04-25T13:12:51;5.10;;;0.60;;
54929;SDS011;40833;53.238;6.576;2023-04-25T13:15:16;10.77;;;0.80;;
54929;SDS011;40833;53.238;6.576;2023-04-25T13:17:42;7.47;;;0.67;;
54929;SDS011;40833;53.238;6.576;2023-04-25T13:20:08;5.70;;;0.50;;
54929;SDS011;40833;53.238;6.576;2023-04-25T13:22:38;6.70;;;0.70;;
54929;SDS011;40833;53.238;6.576;2023-04-25T13:25:05;4.10;;;0.50;;
54929;SDS011;40833;53.238;6.576;2023-04-25T13:27:32;5.23;;;0.50;;
54929;SDS011;40833;53.238;6.576;2023-04-25T13:30:05;10.57;;;1.13;;
54929;SDS011;40833;53.238;6.576;2023-04-25T13:32:37;11.90;;;1.10;;
54929;SDS011;40833;53.238;6.576;2023-04-25T13:35:07;6.97;;;1.30;;
54929;SDS011;40833;53.238;6.576;2023-04-25T13:37:34;9.02;;;0.98;;
54929;SDS011;40833;53.238;6.576;2023-04-25T13:40:01;8.50;;;0.90;;
54929;SDS011;40833;53.238;6.576;2023-04-25T13:42:30;10.50;;;0.93;;
54929;SDS011;40833;53.238;6.576;2023-04-25T13:44:56;6.33;;;1.20;;
54929;SDS011;40833;53.238;6.576;2023-04-25T13:47:22;7.47;;;0.87;;
54929;SDS011;40833;53.238;6.576;2023-04-25T13:49:48;5.90;;;0.53;;
54929;SDS011;40833;53.238;6.576;2023-04-25T13:52:15;10.10;;;1.23;;
54929;SDS011;40833;53.238;6.576;2023-04-25T13:54:41;3.77;;;0.40;;
54929;SDS011;40833;53.238;6.576;2023-04-25T13:57:06;6.37;;;0.67;;
54929;SDS011;40833;53.238;6.576;2023-04-25T13:59:32;6.07;;;1.00;;
54929;SDS011;40833;53.238;6.576;2023-04-25T14:01:58;5.77;;;0.70;;
54929;SDS011;40833;53.238;6.576;2023-04-25T14:04:24;10.77;;;0.93;;
54929;SDS011;40833;53.238;6.576;2023-04-25T14:06:50;8.07;;;0.90;;
54929;SDS011;40833;53.238;6.576;2023-04-25T14:09:16;10.17;;;1.17;;
54929;SDS011;40833;53.238;6.576;2023-04-25T14:11:44;9.87;;;1.20;;
54929;SDS011;40833;53.238;6.576;2023-04-25T14:14:10;14.57;;;1.07;;
54929;SDS011;40833;53.238;6.576;2023-04-25T14:16:37;8.90;;;1.37;;
54929;SDS011;40833;53.238;6.576;2023-04-25T14:19:03;3.57;;;0.23;;
54929;SDS011;40833;53.238;6.576;2023-04-25T14:21:28;3.40;;;1.03;;
54929;SDS011;40833;53.238;6.576;2023-04-25T14:23:57;7.27;;;0.67;;
54929;SDS011;40833;53.238;6.576;2023-04-25T14:26:23;5.97;;;0.70;;
54929;SDS011;40833;53.238;6.576;2023-04-25T14:28:49;3.67;;;0.63;;
54929;SDS011;40833;53.238;6.576;2023-04-25T14:31:16;6.60;;;0.83;;
54929;SDS011;40833;53.238;6.576;2023-04-25T14:33:42;9.40;;;0.93;;
54929;SDS011;40833;53.238;6.576;2023-04-25T14:36:08;8.27;;;0.50;;
54929;SDS011;40833;53.238;6.576;2023-04-25T14:38:35;10.40;;;1.47;;
54929;SDS011;40833;53.238;6.576;2023-04-25T14:41:01;12.07;;;1.37;;
54929;SDS011;40833;53.238;6.576;2023-04-25T14:43:27;9.10;;;0.83;;
54929;SDS011;40833;53.238;6.576;2023-04-25T14:45:53;6.07;;;0.80;;
54929;SDS011;40833;53.238;6.576;2023-04-25T14:48:19;3.23;;;0.30;;
54929;SDS011;40833;53.238;6.576;2023-04-25T14:50:47;3.80;;;0.30;;
54929;SDS011;40833;53.238;6.576;2023-04-25T14:53:13;7.00;;;0.30;;
54929;SDS011;40833;53.238;6.576;2023-04-25T14:55:40;7.27;;;0.80;;